Terminal Aerodrome Forecast
Issued by NWS

Home | Current Version | Previous Version | Graphics & Text | Print | Product List | Glossary On
Versions: 1 2 3 4 5 6 7 8 9 10 11 12 13 14 15 16 17 18 19
713
FTUS42 KMHX 241402 AAB
TAFISO
TAF AMD
KISO 241402Z 2414/2512 02005KT P6SM SCT050
      TEMPO 2414/2415 3SM BR OVC001
     FM250900 02003KT P6SM BKN015
      AMD LTD TO CLD VIS AND WIND=

USA.gov is the U.S. government's official web portal to all federal, state and local government web resources and services.